createdAt,value
2017-08-08T00:01:39.183Z,54.80
2017-08-08T00:04:06.747Z,54.60
2017-08-08T00:06:34.274Z,54.40
2017-08-08T00:09:01.817Z,54.40
2017-08-08T00:11:29.355Z,54.10
2017-08-08T00:13:56.935Z,54.00
2017-08-08T00:16:25.265Z,54.00
2017-08-08T00:18:52.771Z,54.00
2017-08-08T00:21:21.080Z,54.40
2017-08-08T00:23:48.590Z,54.40
2017-08-08T00:26:16.126Z,54.60
2017-08-08T00:28:43.658Z,54.50
2017-08-08T00:31:11.205Z,54.60
2017-08-08T00:33:38.711Z,55.00
2017-08-08T00:36:06.274Z,54.90
2017-08-08T00:38:33.962Z,55.00
2017-08-08T00:41:01.510Z,55.00
2017-08-08T00:43:29.834Z,55.20
2017-08-08T00:45:57.366Z,55.20
2017-08-08T00:48:25.650Z,55.90
2017-08-08T00:50:53.951Z,56.20
2017-08-08T00:53:21.475Z,56.30
2017-08-08T00:55:49.810Z,56.10
2017-08-08T00:58:17.329Z,56.10
2017-08-08T01:00:44.885Z,56.10
2017-08-08T01:03:13.157Z,56.00
2017-08-08T01:05:40.749Z,55.90
2017-08-08T01:08:08.263Z,55.90
2017-08-08T01:10:35.843Z,55.80
2017-08-08T01:13:04.165Z,56.10
2017-08-08T01:15:31.686Z,56.10
2017-08-08T01:17:59.203Z,56.30
2017-08-08T01:20:26.735Z,56.40
2017-08-08T01:22:54.322Z,55.90
2017-08-08T01:25:21.870Z,56.20
2017-08-08T01:27:49.390Z,56.20
2017-08-08T01:30:16.985Z,56.70
2017-08-08T01:32:44.490Z,56.70
2017-08-08T01:35:12.055Z,57.00
2017-08-08T01:37:40.350Z,56.70
2017-08-08T01:40:07.952Z,56.70
2017-08-08T01:42:35.474Z,56.60
2017-08-08T01:45:03.012Z,57.00
2017-08-08T01:47:30.546Z,56.90
2017-08-08T01:49:58.110Z,57.10
2017-08-08T01:52:25.613Z,57.60
2017-08-08T01:54:53.172Z,57.90
2017-08-08T01:57:20.738Z,57.70
2017-08-08T01:59:48.281Z,58.30
2017-08-08T02:02:15.908Z,58.00
2017-08-08T02:04:43.428Z,57.90
2017-08-08T02:07:10.967Z,58.30
2017-08-08T02:09:38.499Z,58.10
2017-08-08T02:12:06.051Z,58.30
2017-08-08T02:14:33.569Z,58.50
2017-08-08T02:17:01.133Z,58.30
2017-08-08T02:19:28.630Z,57.70
2017-08-08T02:21:56.192Z,58.30
2017-08-08T02:24:23.791Z,58.10
2017-08-08T02:26:51.405Z,58.00
2017-08-08T02:29:18.934Z,58.20
2017-08-08T02:31:46.488Z,58.30
2017-08-08T02:34:14.005Z,57.70
2017-08-08T02:36:42.290Z,58.00
2017-08-08T02:39:09.807Z,57.90
2017-08-08T02:41:37.362Z,58.10
2017-08-08T02:44:05.974Z,58.00
2017-08-08T02:46:33.519Z,57.50
2017-08-08T02:49:01.038Z,56.80
2017-08-08T02:51:28.627Z,57.60
2017-08-08T02:53:56.130Z,57.90
2017-08-08T02:56:23.654Z,58.00
2017-08-08T02:58:51.176Z,58.00
2017-08-08T03:01:18.704Z,57.90
2017-08-08T03:03:46.250Z,58.00
2017-08-08T03:06:13.828Z,58.00
2017-08-08T03:08:41.367Z,58.20
2017-08-08T03:11:08.895Z,57.80
2017-08-08T03:13:36.410Z,57.40
2017-08-08T03:16:03.949Z,57.70
2017-08-08T03:18:31.502Z,57.90
2017-08-08T03:20:59.042Z,57.30
2017-08-08T03:23:26.566Z,57.10
2017-08-08T03:25:54.085Z,57.40
2017-08-08T03:28:21.727Z,57.10
2017-08-08T03:30:49.283Z,57.10
2017-08-08T03:33:16.874Z,57.50
2017-08-08T03:35:44.422Z,57.40
2017-08-08T03:38:11.995Z,56.90
2017-08-08T03:40:39.530Z,56.80
2017-08-08T03:43:07.831Z,57.30
2017-08-08T03:45:36.163Z,56.80
2017-08-08T03:48:03.756Z,56.80
2017-08-08T03:50:32.106Z,56.80
2017-08-08T03:52:59.622Z,56.80
2017-08-08T03:55:27.215Z,57.00
2017-08-08T03:57:54.744Z,56.60
2017-08-08T04:00:22.282Z,56.40
2017-08-08T04:02:49.842Z,55.80
2017-08-08T04:05:17.366Z,55.80
2017-08-08T04:07:44.883Z,55.90
2017-08-08T04:10:13.172Z,56.70
2017-08-08T04:12:40.725Z,56.70
2017-08-08T04:15:08.226Z,56.60
2017-08-08T04:17:35.748Z,56.20
2017-08-08T04:20:03.302Z,55.90
2017-08-08T04:22:30.842Z,56.00
2017-08-08T04:24:58.365Z,57.00
2017-08-08T04:27:25.930Z,55.60
2017-08-08T04:29:53.455Z,56.40
2017-08-08T04:32:21.008Z,56.40
2017-08-08T04:34:48.510Z,55.60
2017-08-08T04:37:16.069Z,55.40
2017-08-08T04:39:43.644Z,56.40
2017-08-08T04:42:11.198Z,56.50
2017-08-08T04:44:38.714Z,56.00
2017-08-08T04:47:06.250Z,56.20
2017-08-08T04:49:34.526Z,55.70
2017-08-08T04:52:02.095Z,55.70
2017-08-08T04:54:29.608Z,56.10
2017-08-08T04:56:57.180Z,55.40
2017-08-08T04:59:24.700Z,56.20
2017-08-08T05:01:52.263Z,55.40
2017-08-08T05:04:19.795Z,55.10
2017-08-08T05:06:48.134Z,55.40
2017-08-08T05:09:15.705Z,55.30
2017-08-08T05:11:43.227Z,55.20
2017-08-08T05:14:10.791Z,55.40
2017-08-08T05:16:38.343Z,55.20
2017-08-08T05:19:05.901Z,54.90
2017-08-08T05:21:33.444Z,55.40
2017-08-08T05:24:00.965Z,54.90
2017-08-08T05:26:28.524Z,55.00
2017-08-08T05:28:56.055Z,54.70
2017-08-08T05:31:23.617Z,54.00
2017-08-08T05:33:51.143Z,54.60
2017-08-08T05:36:18.733Z,54.80
2017-08-08T05:38:46.239Z,55.10
2017-08-08T05:41:14.576Z,54.60
2017-08-08T05:43:42.083Z,54.60
2017-08-08T05:46:10.414Z,55.80
2017-08-08T05:48:37.959Z,55.80
2017-08-08T05:51:05.498Z,55.50
2017-08-08T05:53:33.038Z,55.20
2017-08-08T05:56:01.316Z,55.00
2017-08-08T05:58:29.599Z,55.30
2017-08-08T06:00:57.150Z,55.30
2017-08-08T06:03:24.678Z,54.60
2017-08-08T06:05:52.211Z,54.20
2017-08-08T06:08:19.741Z,53.90
2017-08-08T06:10:47.258Z,53.80
2017-08-08T06:13:14.798Z,53.20
2017-08-08T06:15:42.364Z,52.70
2017-08-08T06:18:09.948Z,53.10
2017-08-08T06:20:37.454Z,53.20
2017-08-08T06:23:04.997Z,52.80
2017-08-08T06:25:32.530Z,52.30
2017-08-08T06:28:00.122Z,51.90
2017-08-08T06:30:27.662Z,51.50
2017-08-08T06:32:55.218Z,51.20
2017-08-08T06:35:22.744Z,50.40
2017-08-08T06:37:50.338Z,51.40
2017-08-08T06:40:17.849Z,50.70
2017-08-08T06:42:45.410Z,50.60
2017-08-08T06:45:12.949Z,50.90
2017-08-08T06:47:40.487Z,50.60
2017-08-08T06:50:08.047Z,50.40
2017-08-08T06:52:36.409Z,48.80
2017-08-08T06:55:03.966Z,48.80
2017-08-08T06:57:31.521Z,47.10
2017-08-08T06:59:59.095Z,45.30
2017-08-08T07:02:27.418Z,43.10
2017-08-08T07:04:54.950Z,43.10
2017-08-08T07:07:23.274Z,42.10
2017-08-08T07:09:50.813Z,42.00
2017-08-08T07:12:18.345Z,42.20
2017-08-08T07:14:45.886Z,42.90
2017-08-08T07:17:14.222Z,42.30
2017-08-08T07:19:41.765Z,42.30
2017-08-08T07:22:09.322Z,42.50
2017-08-08T07:24:36.861Z,42.90
2017-08-08T07:27:04.435Z,42.60
2017-08-08T07:29:31.970Z,43.20
2017-08-08T07:32:00.279Z,44.20
2017-08-08T07:34:27.840Z,44.20
2017-08-08T07:36:55.366Z,44.20
2017-08-08T07:39:22.862Z,44.40
2017-08-08T07:41:50.418Z,44.20
2017-08-08T07:44:18.015Z,43.90
2017-08-08T07:46:45.539Z,44.60
2017-08-08T07:49:13.080Z,45.20
2017-08-08T07:51:40.661Z,45.20
2017-08-08T07:54:08.312Z,46.00
2017-08-08T07:56:35.896Z,45.70
2017-08-08T07:59:03.491Z,45.50
2017-08-08T08:01:31.022Z,45.00
2017-08-08T08:03:58.541Z,45.50
2017-08-08T08:06:26.055Z,45.20
2017-08-08T08:08:53.606Z,45.20
2017-08-08T08:11:21.140Z,44.80
2017-08-08T08:13:48.688Z,45.10
2017-08-08T08:16:16.233Z,46.00
2017-08-08T08:18:43.779Z,45.60
2017-08-08T08:21:11.302Z,45.60
2017-08-08T08:23:38.834Z,45.80
2017-08-08T08:26:06.369Z,46.50
2017-08-08T08:28:33.898Z,46.60
2017-08-08T08:31:01.419Z,46.00
2017-08-08T08:33:29.005Z,46.10
2017-08-08T08:35:56.564Z,46.10
2017-08-08T08:38:24.123Z,45.80
2017-08-08T08:40:51.635Z,45.10
2017-08-08T08:43:19.938Z,44.90
2017-08-08T08:45:47.498Z,44.90
2017-08-08T08:48:15.026Z,45.20
2017-08-08T08:50:42.552Z,44.20
2017-08-08T08:53:10.086Z,43.90
2017-08-08T08:55:37.625Z,44.10
2017-08-08T08:58:05.168Z,43.60
2017-08-08T09:00:33.585Z,43.20
2017-08-08T09:03:01.212Z,43.10
2017-08-08T09:05:28.732Z,43.80
2017-08-08T09:08:01.336Z,44.10
2017-08-08T09:10:28.918Z,43.70
2017-08-08T09:12:58.608Z,43.80
2017-08-08T09:15:26.122Z,43.80
2017-08-08T09:17:53.719Z,44.00
2017-08-08T09:20:21.251Z,43.60
2017-08-08T09:22:48.782Z,43.50
2017-08-08T09:25:16.370Z,44.20
2017-08-08T09:27:43.927Z,44.20
2017-08-08T09:30:11.458Z,44.50
2017-08-08T09:32:39.122Z,43.80
2017-08-08T09:35:06.846Z,44.90
2017-08-08T09:37:36.812Z,44.60
2017-08-08T09:40:04.340Z,44.00
2017-08-08T09:42:32.651Z,42.10
2017-08-08T09:45:00.203Z,42.10
2017-08-08T09:47:27.716Z,40.60
2017-08-08T09:49:55.258Z,40.50
2017-08-08T09:52:22.797Z,42.50
2017-08-08T09:54:50.341Z,40.10
2017-08-08T09:57:17.866Z,40.00
2017-08-08T09:59:46.196Z,41.40
2017-08-08T10:02:13.716Z,41.40
2017-08-08T10:04:42.120Z,40.00
2017-08-08T10:07:09.652Z,40.00
2017-08-08T10:09:37.968Z,40.10
2017-08-08T10:12:05.542Z,40.00
2017-08-08T10:14:33.099Z,40.70
2017-08-08T10:17:00.646Z,40.90
2017-08-08T10:19:28.184Z,41.30
2017-08-08T10:21:55.709Z,41.20
2017-08-08T10:24:23.298Z,41.30
2017-08-08T10:26:50.804Z,42.80
2017-08-08T10:29:18.370Z,43.50
2017-08-08T10:31:45.926Z,42.60
2017-08-08T10:34:15.535Z,43.10
2017-08-08T10:36:43.451Z,43.50
2017-08-08T10:39:11.005Z,43.70
2017-08-08T10:41:38.570Z,43.90
2017-08-08T10:44:06.146Z,44.60
2017-08-08T10:46:33.662Z,45.20
2017-08-08T10:49:01.182Z,45.70
2017-08-08T10:51:28.706Z,46.00
2017-08-08T10:53:57.047Z,47.60
2017-08-08T10:56:24.598Z,47.50
2017-08-08T10:58:52.138Z,45.80
2017-08-08T11:01:19.697Z,45.70
2017-08-08T11:03:47.231Z,45.40
2017-08-08T11:06:15.506Z,46.40
2017-08-08T11:08:43.814Z,47.80
2017-08-08T11:11:11.351Z,47.70
2017-08-08T11:13:38.923Z,49.00
2017-08-08T11:16:06.445Z,48.80
2017-08-08T11:18:34.770Z,50.40
2017-08-08T11:21:02.339Z,50.30
2017-08-08T11:23:29.924Z,50.90
2017-08-08T11:25:57.432Z,51.00
2017-08-08T11:28:24.964Z,50.80
2017-08-08T11:30:52.479Z,51.20
2017-08-08T11:33:20.087Z,52.00
2017-08-08T11:35:48.399Z,54.00
2017-08-08T11:38:15.926Z,53.90
2017-08-08T11:40:44.244Z,54.90
2017-08-08T11:43:11.767Z,54.90
2017-08-08T11:45:40.131Z,55.10
2017-08-08T11:48:07.672Z,55.10
2017-08-08T11:50:35.224Z,55.30
2017-08-08T11:53:02.725Z,55.70
2017-08-08T11:55:31.012Z,55.60
2017-08-08T11:57:58.522Z,55.50
2017-08-08T12:00:26.084Z,55.40
2017-08-08T12:02:53.642Z,55.40
2017-08-08T12:05:21.204Z,54.50
2017-08-08T12:07:48.714Z,54.50
2017-08-08T12:10:16.275Z,55.10
2017-08-08T12:12:43.798Z,55.30
2017-08-08T12:15:11.343Z,55.80
2017-08-08T12:17:38.945Z,55.80
2017-08-08T12:20:06.509Z,55.70
2017-08-08T12:22:34.037Z,55.80
2017-08-08T12:25:01.576Z,55.30
2017-08-08T12:27:29.170Z,55.20
2017-08-08T12:29:57.478Z,55.80
2017-08-08T12:32:25.036Z,55.80
2017-08-08T12:34:52.574Z,55.50
2017-08-08T12:37:20.161Z,55.20
2017-08-08T12:39:47.692Z,55.50
2017-08-08T12:42:15.974Z,56.20
2017-08-08T12:44:43.574Z,56.10
2017-08-08T12:47:11.126Z,57.20
2017-08-08T12:49:38.689Z,56.50
2017-08-08T12:52:06.236Z,56.00
2017-08-08T12:54:33.776Z,57.10
2017-08-08T12:57:02.048Z,58.30
2017-08-08T12:59:30.390Z,57.20
2017-08-08T13:01:57.920Z,57.20
2017-08-08T13:04:25.482Z,57.60
2017-08-08T13:06:53.045Z,57.90
2017-08-08T13:09:20.574Z,58.10
2017-08-08T13:11:48.138Z,59.60
2017-08-08T13:14:16.447Z,58.40
2017-08-08T13:16:43.979Z,58.30
2017-08-08T13:19:11.538Z,59.30
2017-08-08T13:21:39.042Z,57.20
2017-08-08T13:24:06.611Z,57.70
2017-08-08T13:26:34.260Z,57.40
2017-08-08T13:29:01.818Z,58.00
2017-08-08T13:31:29.398Z,57.80
2017-08-08T13:33:56.908Z,57.30
2017-08-08T13:36:24.606Z,56.60
2017-08-08T13:38:52.141Z,56.50
2017-08-08T13:41:19.686Z,56.10
2017-08-08T13:43:47.230Z,56.60
2017-08-08T13:46:14.814Z,56.90
2017-08-08T13:48:42.318Z,56.40
2017-08-08T13:51:09.897Z,56.70
2017-08-08T13:53:38.195Z,57.50
2017-08-08T13:56:05.779Z,57.40
2017-08-08T13:58:33.298Z,57.50
2017-08-08T14:01:01.626Z,58.30
2017-08-08T14:03:29.181Z,58.20
2017-08-08T14:05:56.716Z,58.10
2017-08-08T14:08:24.231Z,57.90
2017-08-08T14:10:51.790Z,57.80
2017-08-08T14:13:19.304Z,57.30
2017-08-08T14:15:46.918Z,58.60
2017-08-08T14:18:14.450Z,59.60
2017-08-08T14:20:41.993Z,59.90
2017-08-08T14:23:09.518Z,60.10
2017-08-08T14:25:37.810Z,62.60
2017-08-08T14:28:05.403Z,62.50
2017-08-08T14:30:32.994Z,62.60
2017-08-08T14:33:00.525Z,61.40
2017-08-08T14:35:28.059Z,61.40
2017-08-08T14:37:55.616Z,60.70
2017-08-08T14:40:23.167Z,59.80
2017-08-08T14:42:51.449Z,60.20
2017-08-08T14:45:19.008Z,60.20
2017-08-08T14:47:46.533Z,59.50
2017-08-08T14:50:14.058Z,59.00
2017-08-08T14:52:41.581Z,59.80
2017-08-08T14:55:09.874Z,61.30
2017-08-08T14:57:37.410Z,61.20
2017-08-08T15:00:05.718Z,63.20
2017-08-08T15:02:33.232Z,63.10
2017-08-08T15:05:00.767Z,63.70
2017-08-08T15:07:28.276Z,61.50
2017-08-08T15:09:55.927Z,59.50
2017-08-08T15:12:24.211Z,59.70
2017-08-08T15:14:51.947Z,59.70
2017-08-08T15:17:19.474Z,58.80
2017-08-08T15:19:47.039Z,58.60
2017-08-08T15:22:14.615Z,59.10
2017-08-08T15:24:42.155Z,59.40
2017-08-08T15:27:09.809Z,59.00
2017-08-08T15:29:37.478Z,59.60
2017-08-08T15:32:06.365Z,59.10
2017-08-08T15:34:34.112Z,58.50
2017-08-08T15:37:04.524Z,56.00
2017-08-08T15:39:32.203Z,55.90
2017-08-08T15:42:01.205Z,56.00
2017-08-08T15:44:28.720Z,55.80
2017-08-08T15:46:56.277Z,56.40
2017-08-08T15:49:23.787Z,54.50
2017-08-08T15:51:51.424Z,54.70
2017-08-08T15:54:20.107Z,54.20
2017-08-08T15:56:48.733Z,53.70
2017-08-08T15:59:16.544Z,54.10
2017-08-08T16:01:48.022Z,53.10
2017-08-08T16:04:15.610Z,53.00
2017-08-08T16:06:43.169Z,53.20
2017-08-08T16:09:10.671Z,52.00
2017-08-08T16:11:38.998Z,51.90
2017-08-08T16:14:07.267Z,51.90
2017-08-08T16:16:35.115Z,52.30
2017-08-08T16:19:03.352Z,52.40
2017-08-08T16:21:32.824Z,52.50
2017-08-08T16:24:01.210Z,52.70
2017-08-08T16:26:28.884Z,53.60
2017-08-08T16:28:56.434Z,53.60
2017-08-08T16:31:23.996Z,52.90
2017-08-08T16:33:51.548Z,53.90
2017-08-08T16:36:19.082Z,53.80
2017-08-08T16:38:47.541Z,53.60
2017-08-08T16:41:15.532Z,53.50
2017-08-08T16:43:43.221Z,53.60
2017-08-08T16:46:10.883Z,53.90
2017-08-08T16:48:38.443Z,53.60
2017-08-08T16:51:07.910Z,53.10
2017-08-08T16:53:36.626Z,52.50
2017-08-08T16:56:05.048Z,53.10
2017-08-08T16:58:32.906Z,53.10
2017-08-08T17:01:00.472Z,53.80
2017-08-08T17:03:27.977Z,54.70
2017-08-08T17:05:55.940Z,55.20
2017-08-08T17:08:23.464Z,55.60
2017-08-08T17:10:50.995Z,55.60
2017-08-08T17:13:18.528Z,53.10
2017-08-08T17:15:46.110Z,52.50
2017-08-08T17:18:13.646Z,53.30
2017-08-08T17:20:41.234Z,53.40
2017-08-08T17:23:08.734Z,54.30
2017-08-08T17:25:36.253Z,56.90
2017-08-08T17:28:04.536Z,58.30
2017-08-08T17:30:32.098Z,57.90
2017-08-08T17:32:59.638Z,60.70
2017-08-08T17:35:27.194Z,59.90
2017-08-08T17:37:54.718Z,60.20
2017-08-08T17:40:23.007Z,61.50
2017-08-08T17:42:51.376Z,60.40
2017-08-08T17:45:18.906Z,60.10
2017-08-08T17:47:46.466Z,62.90
2017-08-08T17:50:14.018Z,63.50
2017-08-08T17:52:41.700Z,63.40
2017-08-08T17:55:09.243Z,62.30
2017-08-08T17:57:36.840Z,62.70
2017-08-08T18:00:05.157Z,62.90
2017-08-08T18:02:32.693Z,62.80
2017-08-08T18:05:00.241Z,61.70
2017-08-08T18:07:27.772Z,62.10
2017-08-08T18:09:55.318Z,62.50
2017-08-08T18:12:22.891Z,63.50
2017-08-08T18:14:50.434Z,63.90
2017-08-08T18:17:17.987Z,63.70
2017-08-08T18:19:45.523Z,62.00
2017-08-08T18:22:13.068Z,62.00
2017-08-08T18:24:41.385Z,63.00
2017-08-08T18:27:08.950Z,63.00
2017-08-08T18:29:36.487Z,62.20
2017-08-08T18:32:04.014Z,62.40
2017-08-08T18:34:32.358Z,63.00
2017-08-08T18:36:59.929Z,63.00
2017-08-08T18:39:27.451Z,63.30
2017-08-08T18:41:55.030Z,62.90
2017-08-08T18:44:22.584Z,61.70
2017-08-08T18:46:50.130Z,61.90
2017-08-08T18:49:17.668Z,62.80
2017-08-08T18:51:45.223Z,62.80
2017-08-08T18:54:13.644Z,61.90
2017-08-08T18:56:41.196Z,62.00
2017-08-08T18:59:08.730Z,59.20
2017-08-08T19:01:36.275Z,59.70
2017-08-08T19:04:04.562Z,59.10
2017-08-08T19:06:32.894Z,59.20
2017-08-08T19:09:00.410Z,59.20
2017-08-08T19:11:27.954Z,59.10
2017-08-08T19:13:56.260Z,59.00
2017-08-08T19:16:23.823Z,59.00
2017-08-08T19:18:51.360Z,58.70
2017-08-08T19:21:19.651Z,58.70
2017-08-08T19:23:47.207Z,58.60
2017-08-08T19:26:14.770Z,59.40
2017-08-08T19:28:42.345Z,58.60
2017-08-08T19:31:09.886Z,58.40
2017-08-08T19:33:37.395Z,58.70
2017-08-08T19:36:04.970Z,58.70
2017-08-08T19:38:32.514Z,58.60
2017-08-08T19:41:00.042Z,58.00
2017-08-08T19:43:27.643Z,57.40
2017-08-08T19:45:55.259Z,57.90
2017-08-08T19:48:22.821Z,57.60
2017-08-08T19:50:50.343Z,58.10
2017-08-08T19:53:17.938Z,57.80
2017-08-08T19:55:45.454Z,57.40
2017-08-08T19:58:12.999Z,56.80
2017-08-08T20:00:40.552Z,56.90
2017-08-08T20:03:08.436Z,57.70
2017-08-08T20:05:36.178Z,57.50
2017-08-08T20:08:03.772Z,57.60
2017-08-08T20:10:32.273Z,58.20
2017-08-08T20:13:00.591Z,58.90
2017-08-08T20:15:28.133Z,58.90
2017-08-08T20:17:55.675Z,58.30
2017-08-08T20:20:23.236Z,58.10
2017-08-08T20:22:51.746Z,57.40
2017-08-08T20:25:19.305Z,57.30
2017-08-08T20:27:46.917Z,57.90
2017-08-08T20:30:14.521Z,57.70
2017-08-08T20:32:42.134Z,57.30
2017-08-08T20:35:09.666Z,57.20
2017-08-08T20:37:37.190Z,56.90
2017-08-08T20:40:04.732Z,57.10
2017-08-08T20:42:32.368Z,56.70
2017-08-08T20:44:59.999Z,56.80
2017-08-08T20:47:27.628Z,57.20
2017-08-08T20:49:55.179Z,57.00
2017-08-08T20:52:22.734Z,58.50
2017-08-08T20:54:51.050Z,59.30
2017-08-08T20:57:18.582Z,59.20
2017-08-08T20:59:46.875Z,59.30
2017-08-08T21:02:14.445Z,59.20
2017-08-08T21:04:42.007Z,59.10
2017-08-08T21:07:09.534Z,58.90
2017-08-08T21:09:37.848Z,59.50
2017-08-08T21:12:05.490Z,59.50
2017-08-08T21:14:33.017Z,59.80
2017-08-08T21:17:00.599Z,60.40
2017-08-08T21:19:28.926Z,59.60
2017-08-08T21:21:56.499Z,59.50
2017-08-08T21:24:24.042Z,58.70
2017-08-08T21:26:51.602Z,58.70
2017-08-08T21:29:19.174Z,58.50
2017-08-08T21:31:46.706Z,59.00
2017-08-08T21:34:14.242Z,58.60
2017-08-08T21:36:41.763Z,58.30
2017-08-08T21:39:09.299Z,58.10
2017-08-08T21:41:36.834Z,58.30
2017-08-08T21:44:04.389Z,58.20
2017-08-08T21:46:31.949Z,58.00
2017-08-08T21:48:59.473Z,57.90
2017-08-08T21:51:27.007Z,57.50
2017-08-08T21:53:54.545Z,57.70
2017-08-08T21:56:22.058Z,57.80
2017-08-08T21:58:50.419Z,57.40
2017-08-08T22:01:17.933Z,57.50
2017-08-08T22:03:45.463Z,57.80
2017-08-08T22:06:13.735Z,57.90
2017-08-08T22:08:41.269Z,57.90
2017-08-08T22:11:08.791Z,58.10
2017-08-08T22:13:36.360Z,58.00
2017-08-08T22:16:03.882Z,58.20
2017-08-08T22:18:32.188Z,58.10
2017-08-08T22:20:59.689Z,58.10
2017-08-08T22:23:27.233Z,58.80
2017-08-08T22:25:54.748Z,59.00
2017-08-08T22:28:22.282Z,58.30
2017-08-08T22:30:50.599Z,58.40
2017-08-08T22:33:18.137Z,58.30
2017-08-08T22:35:46.432Z,58.10
2017-08-08T22:38:13.996Z,58.10
2017-08-08T22:40:41.546Z,59.00
2017-08-08T22:43:09.067Z,59.60
2017-08-08T22:45:36.630Z,59.90
2017-08-08T22:48:04.162Z,59.40
2017-08-08T22:50:31.750Z,59.10
2017-08-08T22:52:59.313Z,60.70
2017-08-08T22:55:26.844Z,60.40
2017-08-08T22:57:54.416Z,60.30
2017-08-08T23:00:21.993Z,60.50
2017-08-08T23:02:49.591Z,60.80
2017-08-08T23:05:17.127Z,61.60
2017-08-08T23:07:45.426Z,62.00
2017-08-08T23:10:12.946Z,61.90
2017-08-08T23:12:40.511Z,62.00
2017-08-08T23:15:08.106Z,62.10
2017-08-08T23:17:35.683Z,61.70
2017-08-08T23:20:03.213Z,61.30
2017-08-08T23:22:31.587Z,60.50
2017-08-08T23:24:59.186Z,60.50
2017-08-08T23:27:26.696Z,60.40
2017-08-08T23:29:54.260Z,60.20
2017-08-08T23:32:22.566Z,60.30
2017-08-08T23:34:50.184Z,60.10
2017-08-08T23:37:17.701Z,59.70
2017-08-08T23:39:45.251Z,59.50
2017-08-08T23:42:12.766Z,59.70
2017-08-08T23:44:40.331Z,59.50
2017-08-08T23:47:07.862Z,59.70
2017-08-08T23:49:35.501Z,59.40
2017-08-08T23:52:03.185Z,59.70
2017-08-08T23:54:31.410Z,58.90
2017-08-08T23:56:59.636Z,58.70
2017-08-08T23:59:28.598Z,58.90
